Weather at Laughlin Bullhead International Airport

Public forecast

Using degrees Fahrenheit for public forecast. Weather courtesy of forecast.io.

Current aviation weather report (METAR) for Laughlin Bullhead International Airport

Retrieved 2020/11/29 15:52 UTC (17 minutes ago):

KIFP 291552Z 36021KT 10SM SKC 13/M07 A3021

Aviation forecast (TAF) for Laughlin Bullhead International Airport

Retrieved 2020/11/29 12:30 UTC (4 hours ago):

TAF KIFP 291126Z 2912/3012 02019KT P6SM SKC FM291600 36020G30KT P6SM SKC FM300000 01018KT P6SM SKC